createdAt,value
2019-04-11T00:01:01.749Z,73.30
2019-04-11T00:03:31.583Z,73.20
2019-04-11T00:06:01.410Z,73.30
2019-04-11T00:08:30.780Z,73.60
2019-04-11T00:11:00.096Z,74.00
2019-04-11T00:13:31.754Z,74.40
2019-04-11T00:15:59.665Z,75.00
2019-04-11T00:18:28.900Z,75.30
2019-04-11T00:20:58.312Z,75.50
2019-04-11T00:23:28.374Z,75.70
2019-04-11T00:25:58.520Z,76.10
2019-04-11T00:28:29.833Z,77.50
2019-04-11T00:30:59.212Z,76.70
2019-04-11T00:33:29.927Z,76.80
2019-04-11T00:35:59.882Z,77.20
2019-04-11T00:38:29.968Z,77.50
2019-04-11T00:40:59.753Z,77.40
2019-04-11T00:43:35.817Z,77.50
2019-04-11T00:46:01.797Z,77.40
2019-04-11T00:48:31.521Z,77.40
2019-04-11T00:51:01.441Z,77.80
2019-04-11T00:53:30.986Z,77.20
2019-04-11T00:56:00.401Z,77.30
2019-04-11T00:58:30.518Z,77.10
2019-04-11T01:01:01.645Z,76.80
2019-04-11T01:03:31.242Z,76.90
2019-04-11T01:06:01.594Z,77.10
2019-04-11T01:08:31.484Z,76.50
2019-04-11T01:11:01.479Z,76.50
2019-04-11T01:13:41.484Z,76.90
2019-04-11T01:16:04.961Z,76.60
2019-04-11T01:18:34.444Z,76.80
2019-04-11T01:21:04.065Z,76.70
2019-04-11T01:23:33.423Z,76.70
2019-04-11T01:26:03.282Z,76.50
2019-04-11T01:28:32.663Z,76.70
2019-04-11T01:31:13.571Z,77.10
2019-04-11T01:33:44.182Z,76.60
2019-04-11T01:36:13.743Z,76.40
2019-04-11T01:38:44.699Z,77.20
2019-04-11T01:41:14.163Z,77.30
2019-04-11T01:43:52.683Z,77.30
2019-04-11T01:46:14.641Z,77.20
2019-04-11T01:48:45.909Z,77.20
2019-04-11T01:51:16.341Z,77.60
2019-04-11T01:53:46.887Z,78.00
2019-04-11T01:56:16.895Z,77.80
2019-04-11T01:58:46.866Z,77.60
2019-04-11T02:01:30.583Z,77.70
2019-04-11T02:04:07.892Z,78.10
2019-04-11T02:06:38.141Z,78.60
2019-04-11T02:09:11.594Z,79.10
2019-04-11T02:11:41.544Z,78.20
2019-04-11T02:14:16.112Z,78.00
2019-04-11T02:16:43.207Z,78.50
2019-04-11T02:19:12.708Z,78.80
2019-04-11T02:21:42.456Z,78.70
2019-04-11T02:24:25.846Z,79.40
2019-04-11T02:26:56.902Z,79.20
2019-04-11T02:29:26.201Z,79.10
2019-04-11T02:31:57.139Z,79.60
2019-04-11T02:34:27.720Z,79.70
2019-04-11T02:36:58.609Z,80.00
2019-04-11T02:39:30.811Z,80.00
2019-04-11T02:42:01.282Z,80.80
2019-04-11T02:44:45.432Z,80.20
2019-04-11T02:47:08.390Z,80.50
2019-04-11T02:49:33.099Z,80.40
2019-04-11T02:52:02.780Z,80.60
2019-04-11T02:54:33.542Z,80.80
2019-04-11T02:57:03.322Z,80.90
2019-04-11T02:59:34.372Z,80.90
2019-04-11T03:02:06.772Z,80.90
2019-04-11T03:04:37.086Z,81.10
2019-04-11T03:07:05.939Z,81.60
2019-04-11T03:09:37.274Z,81.80
2019-04-11T03:12:07.379Z,81.70
2019-04-11T03:14:54.343Z,82.00
2019-04-11T03:17:14.943Z,82.40
2019-04-11T03:19:54.748Z,82.40
2019-04-11T03:22:10.335Z,82.50
2019-04-11T03:24:40.628Z,83.60
2019-04-11T03:27:11.485Z,83.00
2019-04-11T03:29:42.962Z,83.20
2019-04-11T03:33:00.764Z,83.20
2019-04-11T03:35:38.713Z,83.70
2019-04-11T03:37:37.994Z,84.00
2019-04-11T03:40:11.895Z,84.50
2019-04-11T03:42:41.748Z,84.30
2019-04-11T03:45:15.097Z,84.40
2019-04-11T03:47:37.335Z,84.70
2019-04-11T03:50:03.820Z,85.00
2019-04-11T03:52:28.512Z,85.00
2019-04-11T03:54:58.885Z,85.30
2019-04-11T03:57:29.787Z,85.30
2019-04-11T04:00:00.982Z,85.60
2019-04-11T04:02:32.643Z,85.70
2019-04-11T04:05:03.833Z,85.90
2019-04-11T04:07:33.961Z,86.00
2019-04-11T04:10:05.203Z,86.00
2019-04-11T04:12:37.690Z,86.30
2019-04-11T04:15:13.030Z,86.40
2019-04-11T04:17:46.187Z,86.30
2019-04-11T04:20:28.872Z,86.30
2019-04-11T04:23:13.945Z,86.20
2019-04-11T04:25:45.650Z,86.50
2019-04-11T04:28:15.868Z,87.20
2019-04-11T04:30:47.039Z,87.00
2019-04-11T04:33:19.332Z,87.20
2019-04-11T04:35:49.668Z,87.40
2019-04-11T04:38:20.947Z,87.60
2019-04-11T04:41:07.667Z,87.50
2019-04-11T04:43:27.212Z,87.70
2019-04-11T04:46:13.687Z,87.80
2019-04-11T04:48:29.502Z,87.90
2019-04-11T04:51:03.462Z,88.50
2019-04-11T04:53:30.783Z,89.40
2019-04-11T04:56:00.369Z,89.10
2019-04-11T04:58:31.553Z,89.40
2019-04-11T05:01:01.299Z,89.60
2019-04-11T05:03:32.051Z,89.80
2019-04-11T05:06:03.877Z,90.20
2019-04-11T05:08:34.728Z,90.00
2019-04-11T05:11:05.178Z,90.30
2019-04-11T05:13:36.533Z,90.30
2019-04-11T05:16:16.060Z,90.10
2019-04-11T05:18:37.835Z,90.10
2019-04-11T05:21:07.154Z,89.80
2019-04-11T05:23:37.422Z,90.00
2019-04-11T05:26:06.919Z,90.20
2019-04-11T05:28:37.201Z,89.40
2019-04-11T05:31:06.723Z,88.40
2019-04-11T05:33:36.984Z,87.60
2019-04-11T05:36:06.301Z,87.30
2019-04-11T05:38:35.953Z,86.70
2019-04-11T05:41:09.678Z,86.60
2019-04-11T05:43:37.311Z,85.60
2019-04-11T05:46:23.318Z,84.80
2019-04-11T05:48:42.769Z,84.60
2019-04-11T05:51:13.054Z,84.80
2019-04-11T05:53:43.706Z,85.00
2019-04-11T05:56:13.956Z,84.10
2019-04-11T05:58:47.008Z,84.10
2019-04-11T06:01:16.690Z,83.80
2019-04-11T06:03:46.377Z,83.50
2019-04-11T06:06:36.126Z,83.40
2019-04-11T06:09:02.417Z,81.70
2019-04-11T06:11:54.430Z,81.50
2019-04-11T06:14:23.515Z,79.10
2019-04-11T06:16:56.147Z,78.40
2019-04-11T06:19:43.874Z,77.50
2019-04-11T06:22:13.235Z,76.20
2019-04-11T06:25:00.608Z,75.40
2019-04-11T06:27:33.661Z,74.60
2019-04-11T06:30:24.458Z,74.40
2019-04-11T06:33:12.893Z,74.20
2019-04-11T06:35:59.988Z,71.90
2019-04-11T06:38:47.139Z,70.80
2019-04-11T06:41:26.806Z,69.60
2019-04-11T06:44:12.498Z,69.00
2019-04-11T06:46:53.848Z,67.60
2019-04-11T06:49:28.722Z,65.40
2019-04-11T06:52:05.311Z,63.20
2019-04-11T06:54:41.688Z,63.30
2019-04-11T06:57:13.895Z,62.40
2019-04-11T06:59:44.995Z,60.70
2019-04-11T07:02:19.791Z,60.80
2019-04-11T07:05:00.282Z,59.60
2019-04-11T07:07:32.791Z,59.10
2019-04-11T07:10:06.724Z,59.00
2019-04-11T07:12:55.623Z,58.00
2019-04-11T07:15:27.232Z,55.50
2019-04-11T07:18:14.579Z,55.30
2019-04-11T07:20:46.675Z,54.20
2019-04-11T07:23:33.156Z,54.20
2019-04-11T07:26:10.206Z,54.20
2019-04-11T07:28:41.674Z,54.10
2019-04-11T07:31:30.012Z,56.00
2019-04-11T07:34:04.342Z,56.10
2019-04-11T07:36:50.739Z,54.00
2019-04-11T07:39:24.645Z,53.20
2019-04-11T07:41:56.149Z,52.90
2019-04-11T07:44:28.895Z,51.70
2019-04-11T07:47:01.399Z,52.90
2019-04-11T07:49:35.136Z,54.40
2019-04-11T07:52:08.986Z,52.60
2019-04-11T07:54:38.982Z,52.50
2019-04-11T07:57:26.322Z,54.20
2019-04-11T08:00:04.232Z,53.20
2019-04-11T08:02:53.214Z,51.10
2019-04-11T08:05:30.311Z,51.20
2019-04-11T08:08:17.606Z,51.70
2019-04-11T08:10:48.609Z,51.60
2019-04-11T08:13:31.371Z,50.70
2019-04-11T08:16:18.858Z,48.00
2019-04-11T08:18:55.827Z,48.40
2019-04-11T08:21:44.674Z,49.70
2019-04-11T08:24:16.356Z,48.30
2019-04-11T08:27:03.422Z,48.20
2019-04-11T08:29:33.931Z,47.80
2019-04-11T08:32:17.881Z,46.30
2019-04-11T08:34:51.903Z,46.70
2019-04-11T08:37:25.577Z,47.50
2019-04-11T08:39:57.641Z,47.40
2019-04-11T08:42:44.972Z,46.30
2019-04-11T08:45:17.594Z,46.40
2019-04-11T08:47:52.684Z,45.10
2019-04-11T08:50:24.206Z,45.40
2019-04-11T08:53:04.622Z,43.80
2019-04-11T08:55:45.580Z,45.30
2019-04-11T08:58:08.548Z,43.00
2019-04-11T09:00:40.192Z,42.80
2019-04-11T09:03:26.003Z,43.70
2019-04-11T09:06:08.313Z,42.10
2019-04-11T09:08:56.471Z,42.20
2019-04-11T09:11:29.075Z,39.90
2019-04-11T09:14:16.750Z,41.40
2019-04-11T09:16:50.657Z,40.70
2019-04-11T09:19:39.392Z,40.00
2019-04-11T09:22:13.322Z,39.40
2019-04-11T09:24:44.256Z,36.50
2019-04-11T09:27:24.838Z,37.90
2019-04-11T09:30:11.459Z,39.70
2019-04-11T09:32:56.975Z,38.70
2019-04-11T09:35:33.903Z,39.80
2019-04-11T09:38:10.673Z,39.30
2019-04-11T09:40:43.753Z,37.50
2019-04-11T09:46:16.548Z,36.40
2019-04-11T09:48:56.495Z,41.10
2019-04-11T09:51:29.980Z,39.00
2019-04-11T09:54:05.654Z,38.10
2019-04-11T09:56:37.800Z,36.50
2019-04-11T09:59:14.790Z,35.10
2019-04-11T10:01:56.057Z,34.30
2019-04-11T10:04:27.623Z,36.60
2019-04-11T10:07:03.335Z,35.50
2019-04-11T10:09:50.460Z,35.20
2019-04-11T10:12:40.510Z,36.00
2019-04-11T10:15:11.418Z,33.80
2019-04-11T10:17:58.978Z,35.40
2019-04-11T10:20:28.815Z,34.90
2019-04-11T10:23:16.486Z,34.30
2019-04-11T10:25:47.520Z,35.50
2019-04-11T10:28:27.414Z,36.40
2019-04-11T10:31:02.120Z,36.70
2019-04-11T10:33:35.818Z,34.60
2019-04-11T10:36:25.789Z,34.50
2019-04-11T10:39:00.544Z,37.60
2019-04-11T10:41:35.722Z,40.20
2019-04-11T10:44:05.533Z,37.00
2019-04-11T10:46:42.374Z,36.90
2019-04-11T10:49:19.974Z,38.30
2019-04-11T10:52:00.339Z,40.50
2019-04-11T10:54:32.476Z,39.60
2019-04-11T10:57:06.110Z,36.70
2019-04-11T10:59:38.554Z,38.10
2019-04-11T11:02:26.206Z,37.90
2019-04-11T11:04:59.030Z,38.30
2019-04-11T11:07:30.753Z,35.40
2019-04-11T11:10:04.742Z,34.70
2019-04-11T11:12:38.381Z,35.80
2019-04-11T11:15:11.501Z,36.00
2019-04-11T11:18:31.895Z,35.60
2019-04-11T11:20:54.023Z,37.30
2019-04-11T11:23:29.110Z,36.10
2019-04-11T11:26:07.013Z,36.70
2019-04-11T11:28:38.723Z,36.70
2019-04-11T11:31:09.790Z,36.00
2019-04-11T11:33:38.937Z,34.60
2019-04-11T11:36:26.261Z,32.70
2019-04-11T11:39:13.043Z,32.60
2019-04-11T11:42:01.949Z,31.50
2019-04-11T11:44:33.129Z,35.80
2019-04-11T11:47:19.999Z,33.90
2019-04-11T11:49:57.153Z,34.40
2019-04-11T11:52:41.226Z,33.40
2019-04-11T11:55:18.984Z,35.40
2019-04-11T11:57:53.032Z,34.40
2019-04-11T12:00:25.055Z,33.20
2019-04-11T12:02:56.954Z,34.70
2019-04-11T12:05:29.406Z,36.00
2019-04-11T12:08:15.364Z,35.30
2019-04-11T12:10:47.635Z,34.20
2019-04-11T12:13:24.311Z,32.70
2019-04-11T12:15:57.784Z,32.60
2019-04-11T12:18:31.426Z,32.30
2019-04-11T12:21:03.199Z,34.70
2019-04-11T12:23:53.009Z,35.20
2019-04-11T12:26:33.263Z,34.60
2019-04-11T12:29:12.367Z,33.30
2019-04-11T12:31:43.991Z,31.90
2019-04-11T12:34:18.639Z,35.10
2019-04-11T12:36:50.957Z,34.10
2019-04-11T12:39:45.642Z,37.10
2019-04-11T12:42:16.524Z,35.90
2019-04-11T12:45:06.252Z,36.60
2019-04-11T12:47:54.256Z,36.60
2019-04-11T12:50:41.934Z,34.60
2019-04-11T12:53:12.245Z,34.20
2019-04-11T12:55:49.210Z,33.30
2019-04-11T12:58:28.992Z,34.70
2019-04-11T13:01:11.941Z,34.20
2019-04-11T13:03:42.901Z,35.20
2019-04-11T13:06:35.123Z,35.10
2019-04-11T13:09:07.079Z,33.20
2019-04-11T13:11:43.657Z,33.40
2019-04-11T13:14:31.024Z,33.40
2019-04-11T13:17:04.830Z,32.40
2019-04-11T13:19:47.839Z,33.30
2019-04-11T13:22:18.789Z,33.60
2019-04-11T13:24:55.302Z,31.90
2019-04-11T13:27:26.208Z,31.80
2019-04-11T13:30:03.217Z,34.30
2019-04-11T13:32:34.815Z,35.10
2019-04-11T13:35:10.634Z,31.80
2019-04-11T13:37:57.704Z,31.80
2019-04-11T13:40:28.678Z,31.20
2019-04-11T13:42:59.635Z,34.80
2019-04-11T13:45:30.594Z,35.10
2019-04-11T13:48:17.883Z,34.10
2019-04-11T13:50:48.849Z,33.20
2019-04-11T13:53:35.882Z,36.00
2019-04-11T13:56:06.160Z,35.30
2019-04-11T13:58:46.359Z,35.50
2019-04-11T14:01:15.777Z,35.60
2019-04-11T14:04:01.407Z,33.10
2019-04-11T14:06:30.733Z,34.70
2019-04-11T14:09:08.407Z,37.90
2019-04-11T14:11:39.428Z,36.80
2019-04-11T14:14:16.158Z,37.80
2019-04-11T14:16:49.624Z,40.20
2019-04-11T14:19:36.785Z,41.20
2019-04-11T14:22:07.710Z,39.60
2019-04-11T14:24:41.723Z,41.00
2019-04-11T14:27:21.876Z,39.50
2019-04-11T14:29:55.905Z,38.70
2019-04-11T14:32:26.857Z,37.80
2019-04-11T14:35:00.369Z,40.10
2019-04-11T14:37:40.059Z,36.90
2019-04-11T14:40:20.604Z,37.10
2019-04-11T14:43:00.402Z,39.00
2019-04-11T14:45:36.593Z,38.70
2019-04-11T14:48:22.137Z,39.00
2019-04-11T14:51:03.237Z,39.40
2019-04-11T14:53:51.478Z,39.50
2019-04-11T14:56:28.504Z,39.60
2019-04-11T14:59:15.654Z,41.20
2019-04-11T15:01:46.608Z,41.00
2019-04-11T15:04:33.974Z,41.90
2019-04-11T15:07:04.775Z,44.60
2019-04-11T15:09:52.783Z,42.60
2019-04-11T15:12:23.739Z,44.60
2019-04-11T15:14:58.624Z,43.90
2019-04-11T15:17:38.663Z,46.00
2019-04-11T15:20:12.751Z,45.70
2019-04-11T15:22:49.842Z,43.90
2019-04-11T15:25:26.583Z,44.20
2019-04-11T15:28:07.967Z,45.20
2019-04-11T15:30:49.356Z,46.50
2019-04-11T15:33:36.906Z,46.40
2019-04-11T15:36:19.754Z,44.90
2019-04-11T15:39:06.892Z,44.50
2019-04-11T15:41:37.949Z,45.40
2019-04-11T15:44:14.725Z,45.90
2019-04-11T15:46:47.654Z,46.20
2019-04-11T15:49:21.866Z,44.40
2019-04-11T15:51:49.277Z,46.60
2019-04-11T15:54:19.455Z,45.10
2019-04-11T15:59:38.329Z,45.40
2019-04-11T16:02:11.882Z,46.00
2019-04-11T16:04:48.698Z,45.30
2019-04-11T16:07:37.822Z,44.60
2019-04-11T16:10:11.680Z,45.60
2019-04-11T16:12:43.859Z,46.00
2019-04-11T16:15:14.823Z,45.90
2019-04-11T16:18:02.077Z,47.30
2019-04-11T16:20:31.397Z,46.30
2019-04-11T16:23:18.792Z,47.60
2019-04-11T16:25:49.755Z,47.60
2019-04-11T16:28:25.960Z,46.90
2019-04-11T16:30:56.958Z,48.00
2019-04-11T16:33:39.452Z,46.10
2019-04-11T16:36:10.423Z,46.90
2019-04-11T16:38:49.760Z,49.10
2019-04-11T16:41:36.105Z,47.80
2019-04-11T16:44:26.407Z,48.80
2019-04-11T16:47:13.744Z,49.20
2019-04-11T16:49:43.063Z,49.20
2019-04-11T16:52:12.386Z,49.20
2019-04-11T16:54:54.154Z,48.50
2019-04-11T16:57:23.481Z,48.00
2019-04-11T16:59:52.807Z,51.10
2019-04-11T17:02:24.346Z,49.20
2019-04-11T17:04:55.661Z,50.80
2019-04-11T17:07:37.812Z,50.80
2019-04-11T17:10:08.141Z,50.10
2019-04-11T17:12:37.474Z,51.50
2019-04-11T17:15:07.927Z,51.00
2019-04-11T17:17:37.222Z,50.70
2019-04-11T17:20:07.678Z,50.30
2019-04-11T17:22:37.002Z,50.90
2019-04-11T17:25:06.644Z,51.80
2019-04-11T17:27:35.970Z,50.80
2019-04-11T17:30:08.480Z,49.80
2019-04-11T17:32:37.803Z,50.70
2019-04-11T17:35:08.150Z,51.40
2019-04-11T17:37:37.526Z,52.00
2019-04-11T17:40:07.714Z,52.40
2019-04-11T17:42:37.153Z,52.70
2019-04-11T17:45:06.916Z,52.70
2019-04-11T17:47:36.314Z,53.20
2019-04-11T17:50:08.501Z,52.20
2019-04-11T17:52:37.859Z,52.20
2019-04-11T17:55:07.300Z,52.40
2019-04-11T17:57:36.622Z,53.80
2019-04-11T18:00:09.024Z,53.40
2019-04-11T18:02:39.019Z,54.00
2019-04-11T18:05:09.732Z,52.80
2019-04-11T18:07:41.315Z,53.10
2019-04-11T18:10:10.298Z,53.40
2019-04-11T18:12:39.569Z,53.20
2019-04-11T18:15:08.991Z,53.10
2019-04-11T18:17:38.307Z,54.20
2019-04-11T18:20:09.462Z,54.10
2019-04-11T18:22:38.761Z,53.60
2019-04-11T18:25:08.235Z,54.00
2019-04-11T18:27:37.543Z,54.50
2019-04-11T18:30:09.974Z,55.30
2019-04-11T18:32:39.590Z,55.50
2019-04-11T18:35:09.226Z,55.40
2019-04-11T18:37:38.646Z,55.40
2019-04-11T18:40:10.323Z,55.20
2019-04-11T18:42:39.282Z,56.00
2019-04-11T18:45:09.409Z,55.60
2019-04-11T18:47:38.768Z,55.30
2019-04-11T18:50:08.968Z,55.50
2019-04-11T18:52:38.450Z,55.80
2019-04-11T18:55:08.001Z,57.20
2019-04-11T18:57:38.019Z,56.60
2019-04-11T19:00:11.392Z,57.10
2019-04-11T19:02:40.798Z,57.40
2019-04-11T19:05:10.859Z,57.60
2019-04-11T19:07:42.993Z,57.60
2019-04-11T19:10:15.043Z,57.60
2019-04-11T19:12:46.351Z,58.90
2019-04-11T19:15:16.659Z,58.10
2019-04-11T19:17:46.823Z,58.70
2019-04-11T19:20:18.946Z,59.20
2019-04-11T19:22:48.733Z,59.70
2019-04-11T19:25:18.025Z,60.30
2019-04-11T19:27:50.436Z,60.80
2019-04-11T19:30:18.453Z,61.30
2019-04-11T19:32:47.785Z,61.70
2019-04-11T19:35:17.160Z,61.80
2019-04-11T19:37:46.555Z,60.10
2019-04-11T19:40:16.388Z,60.80
2019-04-11T19:42:49.182Z,60.60
2019-04-11T19:45:19.585Z,61.00
2019-04-11T19:47:52.280Z,62.30
2019-04-11T19:50:20.647Z,61.40
2019-04-11T19:52:49.937Z,61.50
2019-04-11T19:55:26.937Z,60.70
2019-04-11T19:57:56.275Z,60.50
2019-04-11T20:00:25.600Z,60.70
2019-04-11T20:02:55.199Z,60.00
2019-04-11T20:05:24.554Z,60.40
2019-04-11T20:07:53.989Z,60.40
2019-04-11T20:10:23.334Z,60.40
2019-04-11T20:12:52.714Z,60.10
2019-04-11T20:15:23.027Z,60.70
2019-04-11T20:17:52.330Z,60.60
2019-04-11T20:20:21.654Z,59.90
2019-04-11T20:22:58.993Z,60.60
2019-04-11T20:25:22.100Z,60.30
2019-04-11T20:27:51.487Z,61.10
2019-04-11T20:30:22.936Z,60.70
2019-04-11T20:32:51.944Z,61.40
2019-04-11T20:35:28.747Z,60.80
2019-04-11T20:37:54.247Z,60.90
2019-04-11T20:40:23.259Z,60.70
2019-04-11T20:42:54.339Z,59.90
2019-04-11T20:45:25.494Z,59.90
2019-04-11T20:47:54.797Z,62.10
2019-04-11T20:50:24.102Z,61.30
2019-04-11T20:52:53.382Z,60.70
2019-04-11T20:55:22.898Z,60.80
2019-04-11T20:57:52.258Z,60.70
2019-04-11T21:00:24.672Z,61.20
2019-04-11T21:02:52.636Z,61.20
2019-04-11T21:05:21.956Z,61.00
2019-04-11T21:07:51.278Z,61.50
2019-04-11T21:10:20.570Z,61.90
2019-04-11T21:12:49.882Z,61.60
2019-04-11T21:15:19.165Z,62.20
2019-04-11T21:17:48.490Z,61.70
2019-04-11T21:20:17.761Z,61.70
2019-04-11T21:22:47.090Z,61.40
2019-04-11T21:25:16.881Z,61.50
2019-04-11T21:27:47.094Z,61.60
2019-04-11T21:30:17.473Z,63.20
2019-04-11T21:32:47.450Z,62.00
2019-04-11T21:35:19.070Z,62.80
2019-04-11T21:37:48.375Z,62.60
2019-04-11T21:40:18.090Z,63.70
2019-04-11T21:42:48.220Z,62.40
2019-04-11T21:45:18.434Z,63.20
2019-04-11T21:47:48.661Z,63.40
2019-04-11T21:50:19.239Z,62.70
2019-04-11T21:52:49.345Z,62.90
2019-04-11T21:55:19.454Z,64.10
2019-04-11T21:57:49.652Z,64.60
2019-04-11T22:00:27.275Z,64.60
2019-04-11T22:02:58.211Z,63.90
2019-04-11T22:05:29.227Z,64.00
2019-04-11T22:08:00.850Z,63.20
2019-04-11T22:10:29.507Z,63.50
2019-04-11T22:12:58.826Z,62.90
2019-04-11T22:15:28.130Z,63.70
2019-04-11T22:17:57.423Z,63.90
2019-04-11T22:20:26.710Z,64.80
2019-04-11T22:22:56.027Z,63.70
2019-04-11T22:25:25.315Z,64.40
2019-04-11T22:27:54.619Z,64.00
2019-04-11T22:30:25.437Z,63.10
2019-04-11T22:32:57.471Z,64.70
2019-04-11T22:35:29.102Z,64.20
2019-04-11T22:37:59.888Z,64.40
2019-04-11T22:40:31.508Z,64.00
2019-04-11T22:43:00.677Z,64.40
2019-04-11T22:45:29.997Z,65.40
2019-04-11T22:47:59.359Z,65.30
2019-04-11T22:50:28.661Z,65.30
2019-04-11T22:52:57.974Z,65.10
2019-04-11T22:55:27.289Z,65.20
2019-04-11T22:57:56.578Z,65.20
2019-04-11T23:00:25.887Z,65.10
2019-04-11T23:03:16.880Z,64.80
2019-04-11T23:05:46.623Z,64.60
2019-04-11T23:08:18.699Z,65.10
2019-04-11T23:10:46.925Z,65.30
2019-04-11T23:13:16.408Z,64.60
2019-04-11T23:15:45.855Z,65.60
2019-04-11T23:18:15.176Z,65.00
2019-04-11T23:20:44.769Z,66.30
2019-04-11T23:23:14.494Z,65.20
2019-04-11T23:25:43.781Z,65.80
2019-04-11T23:28:15.637Z,65.80
2019-04-11T23:30:43.296Z,66.80
2019-04-11T23:33:12.506Z,66.70
2019-04-11T23:35:41.811Z,66.60
2019-04-11T23:38:11.081Z,66.50
2019-04-11T23:40:40.461Z,66.40
2019-04-11T23:43:09.755Z,66.30
2019-04-11T23:45:39.080Z,66.80
2019-04-11T23:48:08.359Z,66.50
2019-04-11T23:50:37.668Z,67.40
2019-04-11T23:53:06.959Z,67.70
2019-04-11T23:55:36.273Z,67.50
2019-04-11T23:58:05.563Z,67.70
